Time;durP1;ratioP1;P1;durP2;ratioP2;P2;SDS_P1;SDS_P2;PMS_P1;PMS_P2;Temp;Humidity;BMP_temperature;BMP_pressure;BME280_temperature;BME280_humidity;BME280_pressure;Samples;Min_cycle;Max_cycle;Signal;HPM_P1;HPM_P2
2022/08/22 00:00:19;;;;;;;;;;;;;;;24.07;69.61;96763.29;197215;297;190542;-54
2022/08/22 00:01:21;;;;;;;;;;;;;;;24.08;69.64;96765.48;197253;297;193569;-51
2022/08/22 00:02:22;;;;;;;;;;;;;;;24.05;69.63;96768.39;197224;297;193316;-53
2022/08/22 00:03:24;;;;;;;;;;;;;;;24.03;69.67;96766.56;196846;297;190186;-52
2022/08/22 00:04:25;;;;;;;;;;;;;;;24.03;69.69;96762.95;197370;296;191573;-52
2022/08/22 00:05:27;;;;;;;;;;;;;;;24.03;69.71;96769.33;196828;297;192279;-51
2022/08/22 00:06:28;;;;;;;;;;;;;;;24.02;69.71;96766.30;197876;295;192981;-52
2022/08/22 00:07:29;;;;;;;;;;;;;;;24.01;69.72;96766.09;197303;295;192367;-51
2022/08/22 00:08:31;;;;;;;;;;;;;;;24.00;69.73;96765.06;196784;297;192338;-51
2022/08/22 00:09:32;;;;;;;;;;;;;;;24.00;69.74;96767.25;197235;297;190667;-53
2022/08/22 00:10:33;;;;;;;;;;;;;;;24.00;69.78;96771.41;197466;296;192170;-51
2022/08/22 00:11:35;;;;;;;;;;;;;;;23.98;69.78;96766.80;196805;297;192940;-53
2022/08/22 00:12:36;;;;;;;;;;;;;;;23.98;69.79;96761.85;197531;295;191208;-53
2022/08/22 00:13:37;;;;;;;;;;;;;;;23.98;69.82;96768.19;196559;297;193028;-53
2022/08/22 00:14:39;;;;;;;;;;;;;;;23.99;69.80;96764.26;196389;297;191579;-54
2022/08/22 00:15:40;;;;;;;;;;;;;;;23.96;69.90;96763.59;197665;295;192343;-53
2022/08/22 00:16:42;;;;;;;;;;;;;;;23.95;69.99;96765.56;197850;295;191039;-55
2022/08/22 00:17:43;;;;;;;;;;;;;;;23.96;70.03;96771.90;196866;297;192312;-56
2022/08/22 00:18:44;;;;;;;;;;;;;;;23.92;70.06;96764.86;196741;297;192965;-56
2022/08/22 00:19:46;;;;;;;;;;;;;;;23.91;70.12;96766.61;197533;295;192216;-57
2022/08/22 00:20:47;;;;;;;;;;;;;;;23.91;70.21;96769.37;197765;295;192919;-58
2022/08/22 00:21:48;;;;;;;;;;;;;;;23.91;70.29;96767.99;198175;295;192255;-56
2022/08/22 00:22:50;;;;;;;;;;;;;;;23.87;70.36;96765.72;198055;295;192439;-57
2022/08/22 00:23:51;;;;;;;;;;;;;;;23.87;70.36;96760.19;197912;295;192091;-57
2022/08/22 00:24:52;;;;;;;;;;;;;;;23.88;70.46;96769.52;197478;295;193036;-55
2022/08/22 00:25:54;;;;;;;;;;;;;;;23.87;70.46;96762.95;197741;295;190887;-61
2022/08/22 00:26:55;;;;;;;;;;;;;;;23.89;70.45;96766.16;196574;297;192070;-56
2022/08/22 00:27:56;;;;;;;;;;;;;;;23.90;70.46;96767.19;196481;297;191533;-57
2022/08/22 00:28:58;;;;;;;;;;;;;;;23.87;70.46;96767.91;196698;297;191224;-55
2022/08/22 00:29:59;;;;;;;;;;;;;;;23.88;70.49;96766.75;197390;296;192316;-57
2022/08/22 00:31:01;;;;;;;;;;;;;;;23.90;70.51;96773.30;197369;295;191520;-56
2022/08/22 00:32:02;;;;;;;;;;;;;;;23.89;70.53;96768.93;197007;297;192378;-58
2022/08/22 00:33:03;;;;;;;;;;;;;;;23.89;70.52;96771.70;197174;297;191087;-57
2022/08/22 00:34:05;;;;;;;;;;;;;;;23.87;70.59;96768.48;196509;297;193826;-56
2022/08/22 00:35:06;;;;;;;;;;;;;;;23.88;70.68;96771.48;196403;297;191489;-58
2022/08/22 00:36:07;;;;;;;;;;;;;;;23.87;70.73;96767.91;196892;297;192752;-54
2022/08/22 00:37:09;;;;;;;;;;;;;;;23.90;70.81;96774.69;197136;297;192217;-56
2022/08/22 00:38:10;;;;;;;;;;;;;;;23.89;70.76;96776.66;197290;297;191447;-56
2022/08/22 00:39:11;;;;;;;;;;;;;;;23.91;70.71;96773.53;197192;296;190975;-57
2022/08/22 00:40:13;;;;;;;;;;;;;;;23.93;70.74;96775.38;197507;296;192091;-58
2022/08/22 00:41:15;;;;;;;;;;;;;;;23.95;70.69;96781.37;196486;297;191459;-56
2022/08/22 00:42:16;;;;;;;;;;;;;;;23.95;70.65;96774.45;196876;297;191564;-56
2022/08/22 00:43:18;;;;;;;;;;;;;;;23.94;70.60;96765.92;197698;295;190059;-55
2022/08/22 00:44:19;;;;;;;;;;;;;;;23.97;70.63;96773.50;197847;295;192197;-54
2022/08/22 00:45:20;;;;;;;;;;;;;;;23.98;70.61;96773.73;197856;295;191479;-58
2022/08/22 00:46:21;;;;;;;;;;;;;;;23.98;70.54;96771.54;197040;297;190150;-55
2022/08/22 00:47:23;;;;;;;;;;;;;;;23.97;70.77;96769.35;198066;295;192709;-55
2022/08/22 00:48:25;;;;;;;;;;;;;;;23.99;70.71;96772.56;198022;295;193151;-55
2022/08/22 00:49:26;;;;;;;;;;;;;;;24.00;70.62;96769.21;196548;297;192275;-57
2022/08/22 00:50:28;;;;;;;;;;;;;;;24.01;70.56;96773.00;196768;297;191451;-55
2022/08/22 00:51:30;;;;;;;;;;;;;;;24.01;70.51;96770.23;197799;295;191338;-54
2022/08/22 00:52:31;;;;;;;;;;;;;;;24.04;70.44;96772.31;196688;297;191455;-53
2022/08/22 00:53:33;;;;;;;;;;;;;;;24.08;70.45;96773.78;197168;296;194467;-53
2022/08/22 00:54:34;;;;;;;;;;;;;;;24.10;70.40;96772.84;198177;295;191179;-52
2022/08/22 00:55:36;;;;;;;;;;;;;;;24.14;70.33;96766.25;198108;295;192951;-53
2022/08/22 00:56:37;;;;;;;;;;;;;;;24.16;70.18;96770.84;196670;297;190169;-57
2022/08/22 00:57:38;;;;;;;;;;;;;;;24.19;70.05;96765.97;196759;297;191379;-54
2022/08/22 00:58:40;;;;;;;;;;;;;;;24.23;69.98;96764.08;196628;297;193670;-51
2022/08/22 00:59:41;;;;;;;;;;;;;;;24.28;69.87;96770.54;197020;297;191644;-53
2022/08/22 01:00:43;;;;;;;;;;;;;;;24.30;69.81;96769.59;197037;297;191036;-53
2022/08/22 01:01:44;;;;;;;;;;;;;;;24.33;69.71;96771.67;197026;297;191188;-52
2022/08/22 01:02:45;;;;;;;;;;;;;;;24.38;69.61;96774.19;197148;297;192328;-54
2022/08/22 01:03:47;;;;;;;;;;;;;;;24.37;69.52;96769.81;197393;296;193173;-52
2022/08/22 01:04:48;;;;;;;;;;;;;;;24.40;69.46;96770.47;197529;295;191180;-55
2022/08/22 01:05:49;;;;;;;;;;;;;;;24.42;69.39;96770.91;197607;295;193097;-52
2022/08/22 01:06:51;;;;;;;;;;;;;;;24.42;69.33;96764.79;197432;295;193030;-53
2022/08/22 01:07:52;;;;;;;;;;;;;;;24.42;69.27;96763.41;196446;297;190991;-54
2022/08/22 01:08:53;;;;;;;;;;;;;;;24.45;69.22;96768.22;196272;297;192187;-54
2022/08/22 01:09:55;;;;;;;;;;;;;;;24.47;69.20;96772.05;196859;297;191505;-51
2022/08/22 01:10:56;;;;;;;;;;;;;;;24.47;69.12;96762.34;197124;297;191305;-54
2022/08/22 01:11:58;;;;;;;;;;;;;;;24.47;69.07;96760.96;197003;297;191051;-54
2022/08/22 01:12:59;;;;;;;;;;;;;;;24.49;69.04;96766.94;197028;297;193047;-53
2022/08/22 01:14:00;;;;;;;;;;;;;;;24.45;69.00;96757.72;197092;297;191704;-52
2022/08/22 01:15:02;;;;;;;;;;;;;;;24.47;68.96;96767.89;196749;297;191177;-51
2022/08/22 01:16:03;;;;;;;;;;;;;;;24.44;68.97;96759.69;197075;297;192127;-52
2022/08/22 01:17:04;;;;;;;;;;;;;;;24.45;68.93;96762.67;196912;297;193662;-52
2022/08/22 01:18:06;;;;;;;;;;;;;;;24.46;68.92;96766.28;196806;297;191330;-53
2022/08/22 01:19:07;;;;;;;;;;;;;;;24.45;68.92;96766.03;196982;297;194345;-51
2022/08/22 01:20:08;;;;;;;;;;;;;;;24.43;68.90;96761.44;197204;297;192725;-55
2022/08/22 01:21:10;;;;;;;;;;;;;;;24.43;68.90;96760.05;197211;296;191177;-55
2022/08/22 01:22:11;;;;;;;;;;;;;;;24.41;68.87;96760.41;196367;297;193071;-52
2022/08/22 01:23:12;;;;;;;;;;;;;;;24.40;68.86;96764.93;196757;297;191475;-54
2022/08/22 01:24:14;;;;;;;;;;;;;;;24.39;68.84;96765.52;197700;295;191221;-51
2022/08/22 01:25:17;;;;;;;;;;;;;;;24.37;68.84;96762.89;196873;297;192083;-53
2022/08/22 01:26:19;;;;;;;;;;;;;;;24.36;68.87;96760.70;196620;297;192072;-52
2022/08/22 01:27:20;;;;;;;;;;;;;;;24.39;68.85;96766.09;196831;297;190249;-54
2022/08/22 01:28:22;;;;;;;;;;;;;;;24.39;68.84;96768.86;197280;296;190036;-52
2022/08/22 01:29:23;;;;;;;;;;;;;;;24.37;68.85;96767.05;197525;295;190188;-55
2022/08/22 01:30:24;;;;;;;;;;;;;;;24.35;68.84;96770.17;196899;297;193189;-53
2022/08/22 01:31:26;;;;;;;;;;;;;;;24.35;68.84;96766.57;197689;295;193100;-52
2022/08/22 01:32:27;;;;;;;;;;;;;;;24.35;68.83;96763.80;197353;295;190310;-53
2022/08/22 01:33:28;;;;;;;;;;;;;;;24.35;68.83;96767.95;196879;297;192715;-53
2022/08/22 01:34:30;;;;;;;;;;;;;;;24.31;68.84;96764.30;198020;295;192121;-54
2022/08/22 01:35:31;;;;;;;;;;;;;;;24.31;68.83;96765.69;198060;295;191944;-51
2022/08/22 01:36:33;;;;;;;;;;;;;;;24.32;68.85;96770.06;197864;295;191483;-55
2022/08/22 01:37:34;;;;;;;;;;;;;;;24.29;68.85;96765.22;197002;297;192164;-52
2022/08/22 01:38:35;;;;;;;;;;;;;;;24.29;68.84;96769.37;197471;296;192005;-51
2022/08/22 01:39:37;;;;;;;;;;;;;;;24.26;68.82;96763.98;197497;295;191414;-51
2022/08/22 01:40:38;;;;;;;;;;;;;;;24.26;68.85;96765.36;197416;295;192695;-52
2022/08/22 01:41:40;;;;;;;;;;;;;;;24.24;68.86;96765.72;196405;297;192047;-52
2022/08/22 01:42:41;;;;;;;;;;;;;;;24.21;68.82;96765.03;196479;297;192166;-54
2022/08/22 01:43:42;;;;;;;;;;;;;;;24.21;68.87;96764.23;196822;297;190371;-52
2022/08/22 01:44:44;;;;;;;;;;;;;;;24.22;68.86;96771.37;197170;297;192754;-52
2022/08/22 01:45:45;;;;;;;;;;;;;;;24.19;68.88;96768.73;197173;297;192063;-56
2022/08/22 01:46:46;;;;;;;;;;;;;;;24.18;68.86;96769.91;197035;297;191377;-52
2022/08/22 01:47:48;;;;;;;;;;;;;;;24.18;68.86;96765.75;196703;297;191236;-54
2022/08/22 01:48:49;;;;;;;;;;;;;;;24.16;68.90;96761.73;197995;295;191263;-54
2022/08/22 01:49:51;;;;;;;;;;;;;;;24.15;68.89;96763.70;196890;297;193745;-52
2022/08/22 01:50:52;;;;;;;;;;;;;;;24.15;68.89;96767.05;197885;295;192688;-55
2022/08/22 01:51:53;;;;;;;;;;;;;;;24.14;68.87;96764.88;197721;295;194312;-51
2022/08/22 01:52:55;;;;;;;;;;;;;;;24.12;68.88;96766.36;197566;295;192178;-53
2022/08/22 01:53:56;;;;;;;;;;;;;;;24.12;68.87;96769.13;197998;295;193084;-55
2022/08/22 01:54:57;;;;;;;;;;;;;;;24.11;68.89;96769.71;198090;295;192566;-52
2022/08/22 01:55:59;;;;;;;;;;;;;;;24.10;68.91;96768.11;197981;295;193718;-56
2022/08/22 01:57:01;;;;;;;;;;;;;;;24.08;68.95;96764.89;197890;295;191516;-53
2022/08/22 01:58:02;;;;;;;;;;;;;;;24.09;68.96;96773.42;197404;295;192270;-55
2022/08/22 01:59:38;;;;;;;;;;;;;;;24.12;69.25;96767.75;198785;266;65136;-53
2022/08/22 02:00:39;;;;;;;;;;;;;;;24.08;69.45;96768.25;195996;298;99105;-52
2022/08/22 02:01:41;;;;;;;;;;;;;;;24.07;69.59;96768.03;196221;298;98791;-55
2022/08/22 02:03:31;;;;;;;;;;;;;;;24.02;69.78;96773.23;199839;269;63451;-51
2022/08/22 02:04:32;;;;;;;;;;;;;;;24.01;69.79;96768.85;195164;299;97891;-53
2022/08/22 02:05:36;;;;;;;;;;;;;;;24.00;69.75;96773.36;193386;302;98762;-50
2022/08/22 02:06:37;;;;;;;;;;;;;;;23.99;69.73;96772.56;194292;301;67943;-50
2022/08/22 02:07:38;;;;;;;;;;;;;;;24.00;69.67;96775.55;192602;302;99096;-54
2022/08/22 02:08:39;;;;;;;;;;;;;;;24.00;69.63;96774.17;192505;302;98868;-50
2022/08/22 02:09:41;;;;;;;;;;;;;;;24.02;69.59;96780.15;193027;302;96696;-50
2022/08/22 02:10:42;;;;;;;;;;;;;;;24.02;69.56;96770.45;193588;302;191369;-55
2022/08/22 02:11:43;;;;;;;;;;;;;;;24.04;69.50;96777.86;193330;302;191949;-50
2022/08/22 02:12:45;;;;;;;;;;;;;;;24.06;69.47;96776.91;193477;302;191825;-53
2022/08/22 02:13:46;;;;;;;;;;;;;;;24.07;69.45;96771.59;193619;302;192927;-52
2022/08/22 02:14:47;;;;;;;;;;;;;;;24.10;69.39;96778.38;193613;302;191136;-54
2022/08/22 02:15:49;;;;;;;;;;;;;;;24.11;69.38;96775.83;193716;302;191814;-52
2022/08/22 02:16:50;;;;;;;;;;;;;;;24.12;69.31;96778.23;193973;301;191885;-52
2022/08/22 02:17:52;;;;;;;;;;;;;;;24.12;69.31;96778.23;193206;302;191271;-50
2022/08/22 02:18:53;;;;;;;;;;;;;;;24.12;69.22;96771.91;193066;302;190670;-56
2022/08/22 02:19:54;;;;;;;;;;;;;;;24.12;69.20;96776.86;193356;302;190012;-52
2022/08/22 02:20:56;;;;;;;;;;;;;;;24.14;69.19;96777.91;193472;302;193993;-50
2022/08/22 02:21:57;;;;;;;;;;;;;;;24.13;69.16;96777.08;193594;302;193005;-55
2022/08/22 02:22:58;;;;;;;;;;;;;;;24.14;69.11;96774.56;193484;302;191891;-52
2022/08/22 02:24:00;;;;;;;;;;;;;;;24.14;69.12;96774.56;193340;302;192390;-51
2022/08/22 02:25:03;;;;;;;;;;;;;;;24.14;69.15;96767.64;193221;302;192022;-51
2022/08/22 02:26:04;;;;;;;;;;;;;;;24.14;69.10;96771.80;193060;302;192005;-52
2022/08/22 02:27:05;;;;;;;;;;;;;;;24.14;69.09;96770.41;192958;302;191862;-51
2022/08/22 02:28:07;;;;;;;;;;;;;;;24.15;69.07;96767.86;193490;302;191165;-51
2022/08/22 02:29:08;;;;;;;;;;;;;;;24.16;69.07;96768.66;193404;302;192123;-52
2022/08/22 02:30:09;;;;;;;;;;;;;;;24.17;69.04;96771.66;193404;302;193056;-50
2022/08/22 02:31:11;;;;;;;;;;;;;;;24.15;69.00;96762.32;193310;302;191147;-50
2022/08/22 02:32:12;;;;;;;;;;;;;;;24.17;69.00;96769.69;193110;302;192353;-50
2022/08/22 02:33:13;;;;;;;;;;;;;;;24.17;68.98;96771.66;192899;302;191769;-50
2022/08/22 02:34:15;;;;;;;;;;;;;;;24.16;68.96;96767.28;193326;302;191906;-53
2022/08/22 02:35:16;;;;;;;;;;;;;;;24.16;68.98;96773.62;193760;302;189653;-51
2022/08/22 02:36:17;;;;;;;;;;;;;;;24.15;68.98;96772.59;193508;302;192302;-51
2022/08/22 02:37:20;;;;;;;;;;;;;;;24.14;68.98;96775.95;193356;302;192003;-53
2022/08/22 02:38:21;;;;;;;;;;;;;;;24.14;68.96;96770.41;193289;302;191694;-51
2022/08/22 02:39:23;;;;;;;;;;;;;;;24.14;68.93;96773.17;193168;302;193220;-51
2022/08/22 02:40:24;;;;;;;;;;;;;;;24.14;68.99;96777.33;193147;302;191150;-51
2022/08/22 02:41:25;;;;;;;;;;;;;;;24.12;68.95;96770.52;193798;301;190819;-50
2022/08/22 02:42:27;;;;;;;;;;;;;;;24.11;68.94;96772.48;192947;302;191805;-53
2022/08/22 02:43:28;;;;;;;;;;;;;;;24.10;68.95;96769.48;192897;302;192530;-50
2022/08/22 02:44:29;;;;;;;;;;;;;;;24.10;68.89;96768.69;193056;302;190437;-53
2022/08/22 02:45:31;;;;;;;;;;;;;;;24.08;68.93;96770.44;192980;302;193268;-51
2022/08/22 02:46:32;;;;;;;;;;;;;;;24.09;68.89;96775.39;192985;302;192472;-52
2022/08/22 02:47:33;;;;;;;;;;;;;;;24.08;68.86;96777.94;193106;302;190882;-51
2022/08/22 02:48:35;;;;;;;;;;;;;;;24.09;68.90;96779.54;193501;302;193166;-51
2022/08/22 02:49:36;;;;;;;;;;;;;;;24.08;68.91;96771.81;193372;302;191938;-52
2022/08/22 02:50:38;;;;;;;;;;;;;;;24.08;68.90;96775.97;193306;302;192079;-52
2022/08/22 02:51:40;;;;;;;;;;;;;;;24.07;68.95;96777.72;193219;302;189878;-50
2022/08/22 02:52:41;;;;;;;;;;;;;;;24.05;68.95;96775.31;193095;302;191581;-53
2022/08/22 02:53:43;;;;;;;;;;;;;;;24.05;69.03;96778.66;192901;302;191334;-53
2022/08/22 02:54:44;;;;;;;;;;;;;;;24.02;69.06;96776.00;193344;302;191151;-52
2022/08/22 02:55:46;;;;;;;;;;;;;;;24.01;69.09;96770.82;193545;302;191825;-50
2022/08/22 02:57:56;;;;;;;;;;;;;;;24.00;69.37;96774.17;200805;291;63444;-50
2022/08/22 02:58:58;;;;;;;;;;;;;;;23.96;69.71;96770.52;196942;297;99335;-55
2022/08/22 02:59:59;;;;;;;;;;;;;;;23.93;69.61;96774.80;198075;295;99222;-52
2022/08/22 03:01:01;;;;;;;;;;;;;;;23.92;69.58;96773.75;197231;296;98740;-51
2022/08/22 03:02:02;;;;;;;;;;;;;;;23.89;69.56;96773.88;197658;296;99361;-52
2022/08/22 03:03:03;;;;;;;;;;;;;;;23.89;69.58;96778.62;197186;297;98728;-52
2022/08/22 03:04:05;;;;;;;;;;;;;;;23.87;69.62;96772.06;197665;295;97743;-53
2022/08/22 03:05:06;;;;;;;;;;;;;;;23.86;69.74;96769.66;197493;296;100162;-51
2022/08/22 03:06:08;;;;;;;;;;;;;;;23.83;69.98;96775.32;197297;296;98662;-54
2022/08/22 03:07:09;;;;;;;;;;;;;;;23.79;69.99;96774.41;197396;296;191583;-55
2022/08/22 03:08:11;;;;;;;;;;;;;;;23.78;69.95;96776.14;197351;296;193215;-54
2022/08/22 03:09:12;;;;;;;;;;;;;;;23.77;69.99;96773.16;197181;297;193956;-52
2022/08/22 03:10:14;;;;;;;;;;;;;;;23.77;69.96;96774.54;196793;297;192594;-49
2022/08/22 03:11:15;;;;;;;;;;;;;;;23.75;69.91;96765.21;196972;297;190840;-51
2022/08/22 03:12:17;;;;;;;;;;;;;;;23.75;69.84;96768.56;197508;296;190955;-54
2022/08/22 03:13:18;;;;;;;;;;;;;;;23.76;70.24;96767.40;197153;296;191860;-51
2022/08/22 03:14:19;;;;;;;;;;;;;;;23.76;70.21;96770.16;196514;297;193154;-51
2022/08/22 03:15:21;;;;;;;;;;;;;;;23.75;70.13;96767.17;197764;296;190017;-50
2022/08/22 03:16:22;;;;;;;;;;;;;;;23.76;70.10;96764.05;196347;297;193218;-51
2022/08/22 03:17:23;;;;;;;;;;;;;;;23.80;70.00;96772.44;196958;297;191790;-52
2022/08/22 03:18:25;;;;;;;;;;;;;;;23.84;69.89;96771.97;197551;296;192298;-52
2022/08/22 03:19:26;;;;;;;;;;;;;;;23.87;69.82;96767.91;196941;297;190853;-51
2022/08/22 03:20:27;;;;;;;;;;;;;;;23.90;69.73;96763.62;196673;296;191851;-52
2022/08/22 03:21:29;;;;;;;;;;;;;;;23.93;69.67;96769.84;197998;295;193419;-52
2022/08/22 03:22:30;;;;;;;;;;;;;;;23.98;69.61;96766.80;196884;296;190984;-50
2022/08/22 03:23:31;;;;;;;;;;;;;;;24.01;69.54;96763.31;197311;297;190789;-49
2022/08/22 03:24:33;;;;;;;;;;;;;;;24.05;69.44;96761.47;196559;297;192709;-53
2022/08/22 03:25:34;;;;;;;;;;;;;;;24.08;69.39;96770.44;197148;297;191789;-51
2022/08/22 03:26:35;;;;;;;;;;;;;;;24.10;69.32;96761.19;196972;296;189902;-50
2022/08/22 03:27:37;;;;;;;;;;;;;;;24.13;69.27;96763.81;197197;297;191972;-50
2022/08/22 03:28:38;;;;;;;;;;;;;;;24.13;69.21;96759.08;197608;296;192673;-53
2022/08/22 03:29:39;;;;;;;;;;;;;;;24.14;69.17;96757.95;197166;297;191558;-51
2022/08/22 03:30:41;;;;;;;;;;;;;;;24.15;69.12;96757.36;197002;297;191879;-52
2022/08/22 03:31:42;;;;;;;;;;;;;;;24.16;69.06;96758.97;197541;296;193517;-52
2022/08/22 03:32:43;;;;;;;;;;;;;;;24.16;69.04;96755.62;197059;297;191232;-50
2022/08/22 03:33:45;;;;;;;;;;;;;;;24.17;68.98;96755.03;196775;297;191006;-50
2022/08/22 03:34:46;;;;;;;;;;;;;;;24.17;68.94;96753.07;197152;297;190965;-51
2022/08/22 03:35:48;;;;;;;;;;;;;;;24.17;68.91;96758.61;197681;296;191980;-52
2022/08/22 03:36:50;;;;;;;;;;;;;;;24.19;68.88;96754.89;197171;297;192541;-52
2022/08/22 03:37:51;;;;;;;;;;;;;;;24.19;68.85;96755.48;196857;297;192965;-51
2022/08/22 03:38:52;;;;;;;;;;;;;;;24.19;68.85;96756.28;197391;296;191880;-53
2022/08/22 03:39:54;;;;;;;;;;;;;;;24.20;68.83;96757.08;196707;297;190117;-56
2022/08/22 03:40:55;;;;;;;;;;;;;;;24.19;68.79;96757.66;197462;296;189796;-51
2022/08/22 03:41:56;;;;;;;;;;;;;;;24.19;68.80;96752.13;196900;297;193379;-52
2022/08/22 03:42:58;;;;;;;;;;;;;;;24.20;68.77;96751.55;197606;296;192856;-51
2022/08/22 03:44:00;;;;;;;;;;;;;;;24.18;68.76;96750.52;196483;297;193490;-50
2022/08/22 03:45:01;;;;;;;;;;;;;;;24.19;68.74;96755.48;196739;297;191932;-53
2022/08/22 03:46:03;;;;;;;;;;;;;;;24.18;68.71;96756.64;196765;297;191921;-50
2022/08/22 03:47:04;;;;;;;;;;;;;;;24.18;68.70;96756.06;196762;297;190054;-49
2022/08/22 03:48:05;;;;;;;;;;;;;;;24.19;68.65;96753.52;197549;296;191935;-50
2022/08/22 03:49:07;;;;;;;;;;;;;;;24.19;68.63;96756.28;197093;297;191309;-52
2022/08/22 03:50:08;;;;;;;;;;;;;;;24.20;68.57;96759.27;197632;296;190146;-52
2022/08/22 03:51:09;;;;;;;;;;;;;;;24.19;68.54;96757.66;197118;297;193188;-50
2022/08/22 03:52:11;;;;;;;;;;;;;;;24.18;68.51;96755.26;196740;297;191986;-53
2022/08/22 03:53:13;;;;;;;;;;;;;;;24.17;68.50;96751.69;197552;296;193079;-51
2022/08/22 03:54:14;;;;;;;;;;;;;;;24.17;68.48;96755.84;196976;296;191163;-51
2022/08/22 03:55:15;;;;;;;;;;;;;;;24.17;68.49;96761.37;197097;297;189891;-50
2022/08/22 03:56:17;;;;;;;;;;;;;;;24.16;68.49;96759.77;196656;296;194121;-50
2022/08/22 03:57:18;;;;;;;;;;;;;;;24.15;68.48;96760.94;197210;296;192826;-50
2022/08/22 03:58:20;;;;;;;;;;;;;;;24.14;68.49;96757.95;197036;297;192775;-51
2022/08/22 03:59:21;;;;;;;;;;;;;;;24.14;68.49;96762.10;197172;296;191282;-52
2022/08/22 04:00:22;;;;;;;;;;;;;;;24.13;68.48;96756.89;197954;295;193123;-51
2022/08/22 04:01:24;;;;;;;;;;;;;;;24.12;68.44;96758.86;197201;296;193331;-50
2022/08/22 04:02:26;;;;;;;;;;;;;;;24.11;68.45;96754.48;197443;296;191154;-50
2022/08/22 04:03:27;;;;;;;;;;;;;;;24.12;68.46;96759.44;196226;297;192127;-53
2022/08/22 04:04:30;;;;;;;;;;;;;;;24.11;68.47;96762.79;197117;297;190920;-53
2022/08/22 04:05:32;;;;;;;;;;;;;;;24.11;68.47;96764.76;196916;296;191301;-50
2022/08/22 04:06:34;;;;;;;;;;;;;;;24.10;68.44;96761.19;196669;297;191798;-51
2022/08/22 04:07:35;;;;;;;;;;;;;;;24.10;68.42;96765.92;197030;297;192821;-50
2022/08/22 04:08:36;;;;;;;;;;;;;;;24.09;68.43;96764.31;196594;297;190885;-53
2022/08/22 04:09:38;;;;;;;;;;;;;;;24.08;68.44;96767.66;196969;297;192748;-49
2022/08/22 04:10:39;;;;;;;;;;;;;;;24.08;68.46;96761.33;196872;297;191287;-53
2022/08/22 04:11:40;;;;;;;;;;;;;;;24.07;68.48;96760.52;196677;297;189912;-49
2022/08/22 04:12:42;;;;;;;;;;;;;;;24.06;68.47;96757.53;197100;297;191921;-50
2022/08/22 04:13:43;;;;;;;;;;;;;;;24.05;68.47;96760.66;197243;297;192755;-51
2022/08/22 04:14:44;;;;;;;;;;;;;;;24.05;68.49;96767.00;197241;297;189744;-54
2022/08/22 04:15:46;;;;;;;;;;;;;;;24.05;68.47;96763.43;197178;297;190900;-50
2022/08/22 04:16:47;;;;;;;;;;;;;;;24.03;68.48;96761.57;197324;297;195170;-59
2022/08/22 04:17:48;;;;;;;;;;;;;;;24.04;68.57;96770.94;197280;297;192750;-52
2022/08/22 04:19:56;;;;;;;;;;;;;;;24.01;68.75;96761.13;200378;291;63422;-49
2022/08/22 04:20:57;;;;;;;;;;;;;;;23.99;68.81;96767.03;198581;267;98609;-51
2022/08/22 04:21:58;;;;;;;;;;;;;;;23.96;68.92;96762.21;195194;299;96736;-53
2022/08/22 04:23:00;;;;;;;;;;;;;;;23.93;69.05;96760.16;195011;299;97771;-51
2022/08/22 04:24:01;;;;;;;;;;;;;;;23.90;69.08;96764.42;195109;299;99751;-51
2022/08/22 04:25:02;;;;;;;;;;;;;;;23.88;69.16;96767.33;195735;299;98536;-55
2022/08/22 04:26:04;;;;;;;;;;;;;;;23.86;69.54;96764.12;195708;299;97798;-52
2022/08/22 04:27:05;;;;;;;;;;;;;;;23.82;69.51;96769.56;195703;299;97380;-54
2022/08/22 04:28:06;;;;;;;;;;;;;;;23.81;69.50;96762.98;195755;299;98692;-50
2022/08/22 04:29:08;;;;;;;;;;;;;;;23.78;69.51;96771.99;195253;299;98788;-54
2022/08/22 04:30:09;;;;;;;;;;;;;;;23.77;69.53;96769.00;195650;299;189904;-53
2022/08/22 04:31:10;;;;;;;;;;;;;;;23.75;69.57;96771.33;195630;299;191745;-52
2022/08/22 04:32:13;;;;;;;;;;;;;;;23.76;69.65;96771.55;195427;300;191704;-55
2022/08/22 04:33:14;;;;;;;;;;;;;;;23.75;69.61;96765.80;196207;298;190819;-52
2022/08/22 04:34:16;;;;;;;;;;;;;;;23.75;69.63;96763.02;195500;299;191821;-52
2022/08/22 04:35:17;;;;;;;;;;;;;;;23.76;69.68;96768.78;196388;298;192881;-55
2022/08/22 04:36:19;;;;;;;;;;;;;;;23.76;69.90;96767.40;196638;297;192692;-50
2022/08/22 04:37:20;;;;;;;;;;;;;;;23.76;69.83;96769.58;195358;300;191488;-54
2022/08/22 04:38:21;;;;;;;;;;;;;;;23.79;69.75;96772.22;196410;298;193017;-53
2022/08/22 04:39:23;;;;;;;;;;;;;;;23.82;69.71;96770.11;195367;299;194455;-51
2022/08/22 04:40:24;;;;;;;;;;;;;;;23.86;69.69;96775.19;196535;298;189954;-49
2022/08/22 04:41:25;;;;;;;;;;;;;;;23.90;69.66;96769.95;195604;299;191165;-49
2022/08/22 04:42:27;;;;;;;;;;;;;;;23.96;69.56;96770.52;196562;298;190686;-49
2022/08/22 04:43:28;;;;;;;;;;;;;;;24.02;69.47;96776.58;195599;299;193206;-49
2022/08/22 04:44:29;;;;;;;;;;;;;;;24.06;69.35;96776.91;196442;298;192754;-50
2022/08/22 04:45:31;;;;;;;;;;;;;;;24.11;69.28;96773.86;195688;299;192112;-50
2022/08/22 04:46:32;;;;;;;;;;;;;;;24.13;69.17;96774.31;196238;298;193307;-51
2022/08/22 04:47:33;;;;;;;;;;;;;;;24.17;69.09;96776.61;195707;299;191271;-51
2022/08/22 04:48:35;;;;;;;;;;;;;;;24.21;69.00;96776.11;195762;298;189924;-51
2022/08/22 04:49:36;;;;;;;;;;;;;;;24.24;68.91;96777.35;196433;298;192871;-49
2022/08/22 04:50:38;;;;;;;;;;;;;;;24.27;68.82;96773.09;195596;299;193195;-51
2022/08/22 04:51:40;;;;;;;;;;;;;;;24.29;68.72;96773.53;196323;298;191107;-51
2022/08/22 04:52:41;;;;;;;;;;;;;;;24.32;68.61;96779.17;195659;299;192967;-50
2022/08/22 04:53:42;;;;;;;;;;;;;;;24.34;68.57;96782.97;195543;299;192019;-52
2022/08/22 04:54:44;;;;;;;;;;;;;;;24.34;68.50;96783.77;195553;299;190961;-49
2022/08/22 04:55:45;;;;;;;;;;;;;;;24.35;68.43;96785.96;195568;299;192089;-51
2022/08/22 04:56:46;;;;;;;;;;;;;;;24.34;68.44;96781.00;195605;299;191376;-49
2022/08/22 04:57:48;;;;;;;;;;;;;;;24.37;68.38;96787.81;195592;299;189959;-50
2022/08/22 04:58:49;;;;;;;;;;;;;;;24.37;68.34;96790.59;195489;299;192149;-50
2022/08/22 04:59:50;;;;;;;;;;;;;;;24.35;68.29;96795.10;195569;299;191322;-52
2022/08/22 05:00:52;;;;;;;;;;;;;;;24.36;68.29;96788.98;195642;299;189912;-49
2022/08/22 05:01:53;;;;;;;;;;;;;;;24.36;68.28;96793.14;196509;284;193008;-52
2022/08/22 05:02:54;;;;;;;;;;;;;;;24.33;68.23;96787.70;196429;298;190929;-52
2022/08/22 05:03:56;;;;;;;;;;;;;;;24.35;68.23;96794.27;196055;298;193800;-50
2022/08/22 05:04:58;;;;;;;;;;;;;;;24.33;68.24;96789.09;195606;299;193025;-52
2022/08/22 05:05:59;;;;;;;;;;;;;;;24.33;68.21;96791.06;195612;299;191277;-52
2022/08/22 05:07:01;;;;;;;;;;;;;;;24.30;68.22;96786.21;195572;299;189897;-52
2022/08/22 05:08:02;;;;;;;;;;;;;;;24.30;68.23;96796.70;195602;299;193661;-49
2022/08/22 05:09:03;;;;;;;;;;;;;;;24.29;68.27;96792.91;195528;299;191927;-49
2022/08/22 05:10:05;;;;;;;;;;;;;;;24.27;68.24;96793.86;195572;299;190908;-51
2022/08/22 05:11:06;;;;;;;;;;;;;;;24.27;68.22;96793.86;195625;299;192543;-49
2022/08/22 05:12:13;;;;;;;;;;;;;;;24.26;68.21;96796.41;195541;299;192786;-52
2022/08/22 05:13:11;;;;;;;;;;;;;;;24.27;68.20;96795.24;195283;299;161907;-49
2022/08/22 05:14:12;;;;;;;;;;;;;;;24.24;68.16;96794.80;196450;298;192063;-49
2022/08/22 05:15:13;;;;;;;;;;;;;;;24.24;68.15;96794.80;195259;299;191106;-52
2022/08/22 05:16:16;;;;;;;;;;;;;;;24.23;68.14;96797.31;196412;298;192086;-51
2022/08/22 05:17:18;;;;;;;;;;;;;;;24.23;68.09;96800.09;195573;299;192247;-51
2022/08/22 05:18:19;;;;;;;;;;;;;;;24.23;68.07;96800.09;196406;298;191411;-52
2022/08/22 05:19:21;;;;;;;;;;;;;;;24.22;68.07;96791.56;195481;299;190178;-50